sensor_id;sensor_type;location;lat;lon;timestamp;pressure;altitude;pressure_sealevel;temperature;humidity
6208;BME280;3137;51.550;7.060;2023-07-28T00:00:25;100120.66;;;17.32;93.20
6208;BME280;3137;51.550;7.060;2023-07-28T00:02:52;100122.31;;;17.33;93.04
6208;BME280;3137;51.550;7.060;2023-07-28T00:05:18;100130.22;;;17.34;92.85
6208;BME280;3137;51.550;7.060;2023-07-28T00:07:45;100127.13;;;17.31;93.13
6208;BME280;3137;51.550;7.060;2023-07-28T00:10:11;100126.06;;;17.32;92.97
6208;BME280;3137;51.550;7.060;2023-07-28T00:12:38;100134.78;;;17.27;93.17
6208;BME280;3137;51.550;7.060;2023-07-28T00:15:05;100128.34;;;17.28;93.05
6208;BME280;3137;51.550;7.060;2023-07-28T00:17:31;100131.69;;;17.24;93.42
6208;BME280;3137;51.550;7.060;2023-07-28T00:19:58;100121.09;;;17.29;93.27
6208;BME280;3137;51.550;7.060;2023-07-28T00:22:24;100115.25;;;17.32;92.97
6208;BME280;3137;51.550;7.060;2023-07-28T00:24:50;100123.78;;;17.29;93.22
6208;BME280;3137;51.550;7.060;2023-07-28T00:27:17;100116.94;;;17.26;93.34
6208;BME280;3137;51.550;7.060;2023-07-28T00:29:44;100122.75;;;17.30;93.22
6208;BME280;3137;51.550;7.060;2023-07-28T00:32:11;100114.66;;;17.30;93.12
6208;BME280;3137;51.550;7.060;2023-07-28T00:34:37;100110.91;;;17.31;92.92
6208;BME280;3137;51.550;7.060;2023-07-28T00:37:04;100115.50;;;17.30;93.31
6208;BME280;3137;51.550;7.060;2023-07-28T00:39:30;100111.94;;;17.30;93.14
6208;BME280;3137;51.550;7.060;2023-07-28T00:41:57;100109.84;;;17.32;93.06
6208;BME280;3137;51.550;7.060;2023-07-28T00:44:23;100109.63;;;17.40;92.66
6208;BME280;3137;51.550;7.060;2023-07-28T00:46:50;100114.41;;;17.31;92.86
6208;BME280;3137;51.550;7.060;2023-07-28T00:49:17;100107.56;;;17.35;93.22
6208;BME280;3137;51.550;7.060;2023-07-28T00:51:43;100097.38;;;17.38;93.07
6208;BME280;3137;51.550;7.060;2023-07-28T00:54:10;100106.31;;;17.38;92.97
6208;BME280;3137;51.550;7.060;2023-07-28T00:56:37;100105.06;;;17.41;93.33
6208;BME280;3137;51.550;7.060;2023-07-28T00:59:03;100114.63;;;17.36;93.18
6208;BME280;3137;51.550;7.060;2023-07-28T01:01:30;100114.63;;;17.43;92.82
6208;BME280;3137;51.550;7.060;2023-07-28T01:03:57;100114.41;;;17.45;92.65
6208;BME280;3137;51.550;7.060;2023-07-28T01:07:00;100117.72;;;17.40;92.53
6208;BME280;3137;51.550;7.060;2023-07-28T01:09:40;100117.97;;;17.39;92.79
6208;BME280;3137;51.550;7.060;2023-07-28T01:12:08;100125.44;;;17.36;92.86
6208;BME280;3137;51.550;7.060;2023-07-28T01:14:37;100129.78;;;17.44;92.78
6208;BME280;3137;51.550;7.060;2023-07-28T01:17:04;100119.00;;;17.38;92.78
6208;BME280;3137;51.550;7.060;2023-07-28T01:19:31;100125.66;;;17.42;92.81
6208;BME280;3137;51.550;7.060;2023-07-28T01:22:21;100120.63;;;17.45;93.10
6208;BME280;3137;51.550;7.060;2023-07-28T01:25:02;100128.75;;;17.45;92.76
6208;BME280;3137;51.550;7.060;2023-07-28T01:27:32;100116.69;;;17.41;93.02
6208;BME280;3137;51.550;7.060;2023-07-28T01:29:59;100124.19;;;17.46;92.99
6208;BME280;3137;51.550;7.060;2023-07-28T01:32:25;100119.19;;;17.43;92.98
6208;BME280;3137;51.550;7.060;2023-07-28T01:34:52;100113.59;;;17.38;92.83
6208;BME280;3137;51.550;7.060;2023-07-28T01:37:18;100119.00;;;17.38;92.89
6208;BME280;3137;51.550;7.060;2023-07-28T01:39:45;100122.97;;;17.35;92.85
6208;BME280;3137;51.550;7.060;2023-07-28T01:42:12;100116.09;;;17.32;93.43
6208;BME280;3137;51.550;7.060;2023-07-28T01:44:38;100120.66;;;17.32;93.13
6208;BME280;3137;51.550;7.060;2023-07-28T01:47:04;100121.50;;;17.32;93.07
6208;BME280;3137;51.550;7.060;2023-07-28T01:49:31;100126.69;;;17.34;93.13
6208;BME280;3137;51.550;7.060;2023-07-28T01:51:57;100125.66;;;17.35;92.97
6208;BME280;3137;51.550;7.060;2023-07-28T01:54:24;100129.19;;;17.29;93.32
6208;BME280;3137;51.550;7.060;2023-07-28T01:56:50;100131.47;;;17.39;92.95
6208;BME280;3137;51.550;7.060;2023-07-28T01:59:17;100137.09;;;17.37;93.21
6208;BME280;3137;51.550;7.060;2023-07-28T02:01:43;100137.50;;;17.34;93.14
6208;BME280;3137;51.550;7.060;2023-07-28T02:04:09;100133.97;;;17.33;93.24
6208;BME280;3137;51.550;7.060;2023-07-28T02:06:36;100138.13;;;17.36;93.07
6208;BME280;3137;51.550;7.060;2023-07-28T02:09:03;100135.22;;;17.31;93.38
6208;BME280;3137;51.550;7.060;2023-07-28T02:11:30;100128.34;;;17.42;93.04
6208;BME280;3137;51.550;7.060;2023-07-28T02:13:57;100132.31;;;17.39;92.91
6208;BME280;3137;51.550;7.060;2023-07-28T02:16:24;100134.38;;;17.37;93.15
6208;BME280;3137;51.550;7.060;2023-07-28T02:18:54;100129.59;;;17.32;93.39
6208;BME280;3137;51.550;7.060;2023-07-28T02:21:20;100125.44;;;17.36;92.73
6208;BME280;3137;51.550;7.060;2023-07-28T02:23:47;100128.16;;;17.43;92.79
6208;BME280;3137;51.550;7.060;2023-07-28T02:26:13;100132.09;;;17.41;92.73
6208;BME280;3137;51.550;7.060;2023-07-28T02:28:39;100132.47;;;17.44;93.03
6208;BME280;3137;51.550;7.060;2023-07-28T02:31:06;100139.78;;;17.44;92.76
6208;BME280;3137;51.550;7.060;2023-07-28T02:33:32;100132.31;;;17.39;93.03
6208;BME280;3137;51.550;7.060;2023-07-28T02:36:03;100137.09;;;17.44;93.00
6208;BME280;3137;51.550;7.060;2023-07-28T02:38:30;100146.00;;;17.44;93.07
6208;BME280;3137;51.550;7.060;2023-07-28T02:40:56;100139.78;;;17.44;92.87
6208;BME280;3137;51.550;7.060;2023-07-28T02:43:23;100147.47;;;17.33;93.42
6208;BME280;3137;51.550;7.060;2023-07-28T02:45:57;100145.63;;;17.34;93.41
6208;BME280;3137;51.550;7.060;2023-07-28T02:48:23;100142.28;;;17.32;93.49
6208;BME280;3137;51.550;7.060;2023-07-28T02:50:51;100148.09;;;17.42;93.15
6208;BME280;3137;51.550;7.060;2023-07-28T02:53:18;100152.66;;;17.42;93.20
6208;BME280;3137;51.550;7.060;2023-07-28T02:55:46;100163.06;;;17.38;93.32
6208;BME280;3137;51.550;7.060;2023-07-28T02:58:14;100163.47;;;17.42;93.59
6208;BME280;3137;51.550;7.060;2023-07-28T03:00:41;100157.63;;;17.45;93.20
6208;BME280;3137;51.550;7.060;2023-07-28T03:03:11;100157.88;;;17.43;93.32
6208;BME280;3137;51.550;7.060;2023-07-28T03:05:39;100166.38;;;17.47;93.20
6208;BME280;3137;51.550;7.060;2023-07-28T03:08:16;100165.13;;;17.36;93.71
6208;BME280;3137;51.550;7.060;2023-07-28T03:10:43;100164.72;;;17.46;93.25
6208;BME280;3137;51.550;7.060;2023-07-28T03:13:09;100170.97;;;17.46;93.27
6208;BME280;3137;51.550;7.060;2023-07-28T03:15:35;100168.06;;;17.48;93.35
6208;BME280;3137;51.550;7.060;2023-07-28T03:18:02;100171.38;;;17.43;93.55
6208;BME280;3137;51.550;7.060;2023-07-28T03:20:29;100165.75;;;17.45;93.28
6208;BME280;3137;51.550;7.060;2023-07-28T03:22:56;100168.88;;;17.42;93.43
6208;BME280;3137;51.550;7.060;2023-07-28T03:25:23;100169.72;;;17.42;93.59
6208;BME280;3137;51.550;7.060;2023-07-28T03:27:49;100164.50;;;17.41;93.44
6208;BME280;3137;51.550;7.060;2023-07-28T03:30:16;100167.63;;;17.44;93.59
6208;BME280;3137;51.550;7.060;2023-07-28T03:32:42;100166.19;;;17.42;93.63
6208;BME280;3137;51.550;7.060;2023-07-28T03:35:09;100167.84;;;17.43;93.55
6208;BME280;3137;51.550;7.060;2023-07-28T03:37:41;100163.47;;;17.42;93.52
6208;BME280;3137;51.550;7.060;2023-07-28T03:40:08;100172.22;;;17.44;93.49
6208;BME280;3137;51.550;7.060;2023-07-28T03:42:43;100169.69;;;17.49;93.30
6208;BME280;3137;51.550;7.060;2023-07-28T03:45:10;100167.22;;;17.47;93.46
6208;BME280;3137;51.550;7.060;2023-07-28T03:47:36;100175.13;;;17.42;93.83
6208;BME280;3137;51.550;7.060;2023-07-28T03:50:03;100172.63;;;17.47;93.73
6208;BME280;3137;51.550;7.060;2023-07-28T03:52:30;100177.81;;;17.49;93.57
6208;BME280;3137;51.550;7.060;2023-07-28T03:54:56;100183.84;;;17.51;93.33
6208;BME280;3137;51.550;7.060;2023-07-28T03:57:23;100182.81;;;17.52;93.34
6208;BME280;3137;51.550;7.060;2023-07-28T03:59:49;100181.13;;;17.51;93.29
6208;BME280;3137;51.550;7.060;2023-07-28T04:02:15;100178.88;;;17.48;93.40
6208;BME280;3137;51.550;7.060;2023-07-28T04:04:42;100176.56;;;17.51;93.29
6208;BME280;3137;51.550;7.060;2023-07-28T04:07:08;100187.38;;;17.51;93.36
6208;BME280;3137;51.550;7.060;2023-07-28T04:09:35;100186.75;;;17.49;93.15
6208;BME280;3137;51.550;7.060;2023-07-28T04:12:01;100200.91;;;17.51;93.42
6208;BME280;3137;51.550;7.060;2023-07-28T04:14:28;100186.34;;;17.46;93.60
6208;BME280;3137;51.550;7.060;2023-07-28T04:16:55;100181.75;;;17.46;93.77
6208;BME280;3137;51.550;7.060;2023-07-28T04:19:21;100190.28;;;17.50;93.68
6208;BME280;3137;51.550;7.060;2023-07-28T04:21:48;100180.31;;;17.50;93.47
6208;BME280;3137;51.550;7.060;2023-07-28T04:24:14;100174.91;;;17.50;93.81
6208;BME280;3137;51.550;7.060;2023-07-28T04:26:46;100166.78;;;17.50;93.58
6208;BME280;3137;51.550;7.060;2023-07-28T04:29:15;100164.91;;;17.51;93.35
6208;BME280;3137;51.550;7.060;2023-07-28T04:31:41;100162.44;;;17.56;93.72
6208;BME280;3137;51.550;7.060;2023-07-28T04:34:11;100175.72;;;17.57;93.56
6208;BME280;3137;51.550;7.060;2023-07-28T04:36:58;100182.81;;;17.58;93.57
6208;BME280;3137;51.550;7.060;2023-07-28T04:39:31;100173.66;;;17.66;92.53
6208;BME280;3137;51.550;7.060;2023-07-28T04:41:58;100182.00;;;17.64;93.21
6208;BME280;3137;51.550;7.060;2023-07-28T04:44:24;100187.41;;;17.64;93.11
6208;BME280;3137;51.550;7.060;2023-07-28T04:46:56;100187.78;;;17.61;93.20
6208;BME280;3137;51.550;7.060;2023-07-28T04:49:23;100195.50;;;17.64;93.10
6208;BME280;3137;51.550;7.060;2023-07-28T04:52:07;100202.16;;;17.68;93.15
6208;BME280;3137;51.550;7.060;2023-07-28T04:54:53;100206.13;;;17.59;93.21
6208;BME280;3137;51.550;7.060;2023-07-28T04:57:20;100201.53;;;17.60;93.17
6208;BME280;3137;51.550;7.060;2023-07-28T04:59:46;100201.75;;;17.58;93.48
6208;BME280;3137;51.550;7.060;2023-07-28T05:02:13;100201.31;;;17.61;93.06
6208;BME280;3137;51.550;7.060;2023-07-28T05:04:39;100198.00;;;17.59;93.21
6208;BME280;3137;51.550;7.060;2023-07-28T05:07:06;100198.19;;;17.58;93.33
6208;BME280;3137;51.550;7.060;2023-07-28T05:09:32;100194.66;;;17.64;92.90
6208;BME280;3137;51.550;7.060;2023-07-28T05:11:59;100199.44;;;17.62;92.95
6208;BME280;3137;51.550;7.060;2023-07-28T05:14:25;100206.53;;;17.63;92.98
6208;BME280;3137;51.550;7.060;2023-07-28T05:16:52;100208.19;;;17.64;93.04
6208;BME280;3137;51.550;7.060;2023-07-28T05:19:53;100211.94;;;17.63;93.07
6208;BME280;3137;51.550;7.060;2023-07-28T05:22:42;100214.19;;;17.66;92.92
6208;BME280;3137;51.550;7.060;2023-07-28T05:25:08;100210.06;;;17.63;93.15
6208;BME280;3137;51.550;7.060;2023-07-28T05:27:39;100208.16;;;17.70;92.72
6208;BME280;3137;51.550;7.060;2023-07-28T05:30:06;100213.38;;;17.72;92.72
6208;BME280;3137;51.550;7.060;2023-07-28T05:32:33;100217.94;;;17.71;93.00
6208;BME280;3137;51.550;7.060;2023-07-28T05:35:21;100216.28;;;17.77;93.36
6208;BME280;3137;51.550;7.060;2023-07-28T05:37:48;100222.53;;;17.77;92.90
6208;BME280;3137;51.550;7.060;2023-07-28T05:40:14;100223.56;;;17.76;93.03
6208;BME280;3137;51.550;7.060;2023-07-28T05:42:41;100229.19;;;17.82;92.59
6208;BME280;3137;51.550;7.060;2023-07-28T05:45:08;100230.63;;;17.84;93.08
6208;BME280;3137;51.550;7.060;2023-07-28T05:47:35;100224.56;;;17.89;92.85
6208;BME280;3137;51.550;7.060;2023-07-28T05:50:02;100230.19;;;17.94;92.42
6208;BME280;3137;51.550;7.060;2023-07-28T05:52:30;100242.06;;;17.86;93.09
6208;BME280;3137;51.550;7.060;2023-07-28T05:54:57;100238.50;;;17.92;92.50
6208;BME280;3137;51.550;7.060;2023-07-28T05:57:24;100242.88;;;17.93;92.50
6208;BME280;3137;51.550;7.060;2023-07-28T05:59:51;100244.31;;;17.96;92.60
6208;BME280;3137;51.550;7.060;2023-07-28T06:02:17;100247.03;;;17.96;92.45
6208;BME280;3137;51.550;7.060;2023-07-28T06:04:49;100259.28;;;18.05;91.98
6208;BME280;3137;51.550;7.060;2023-07-28T06:07:15;100255.53;;;17.99;91.87
6208;BME280;3137;51.550;7.060;2023-07-28T06:09:42;100255.97;;;18.03;91.91
6208;BME280;3137;51.550;7.060;2023-07-28T06:12:09;100262.41;;;18.02;91.68
6208;BME280;3137;51.550;7.060;2023-07-28T06:14:35;100268.66;;;18.02;91.78
6208;BME280;3137;51.550;7.060;2023-07-28T06:17:04;100268.03;;;18.07;91.92
6208;BME280;3137;51.550;7.060;2023-07-28T06:19:32;100269.06;;;18.06;91.97
6208;BME280;3137;51.550;7.060;2023-07-28T06:21:59;100271.78;;;18.06;91.76
6208;BME280;3137;51.550;7.060;2023-07-28T06:24:27;100273.03;;;18.03;91.64
6208;BME280;3137;51.550;7.060;2023-07-28T06:26:56;100274.47;;;18.06;91.54
6208;BME280;3137;51.550;7.060;2023-07-28T06:29:22;100279.47;;;18.02;91.61
6208;BME280;3137;51.550;7.060;2023-07-28T06:31:49;100273.63;;;18.05;91.41
6208;BME280;3137;51.550;7.060;2023-07-28T06:34:15;100281.56;;;18.07;91.36
6208;BME280;3137;51.550;7.060;2023-07-28T06:36:42;100278.22;;;18.05;91.37
6208;BME280;3137;51.550;7.060;2023-07-28T06:39:08;100285.69;;;18.09;91.43
6208;BME280;3137;51.550;7.060;2023-07-28T06:41:35;100277.81;;;18.01;91.46
6208;BME280;3137;51.550;7.060;2023-07-28T06:44:06;100275.31;;;18.06;91.37
6208;BME280;3137;51.550;7.060;2023-07-28T06:46:34;100289.88;;;18.12;91.39
6208;BME280;3137;51.550;7.060;2023-07-28T06:49:01;100284.22;;;18.13;91.47
6208;BME280;3137;51.550;7.060;2023-07-28T06:51:27;100292.78;;;18.10;91.57
6208;BME280;3137;51.550;7.060;2023-07-28T06:53:53;100290.28;;;18.09;91.75
6208;BME280;3137;51.550;7.060;2023-07-28T06:56:20;100295.06;;;18.13;91.68
6208;BME280;3137;51.550;7.060;2023-07-28T06:58:46;100304.00;;;18.14;91.61
6208;BME280;3137;51.550;7.060;2023-07-28T07:01:30;100298.41;;;18.15;91.63
6208;BME280;3137;51.550;7.060;2023-07-28T07:03:57;100296.94;;;18.19;91.30
6208;BME280;3137;51.550;7.060;2023-07-28T07:06:24;100299.84;;;18.24;91.28
6208;BME280;3137;51.550;7.060;2023-07-28T07:08:50;100310.47;;;18.19;91.86
6208;BME280;3137;51.550;7.060;2023-07-28T07:11:17;100307.72;;;18.26;91.21
6208;BME280;3137;51.550;7.060;2023-07-28T07:13:43;100309.84;;;18.24;91.12
6208;BME280;3137;51.550;7.060;2023-07-28T07:16:16;100311.47;;;18.32;91.00
6208;BME280;3137;51.550;7.060;2023-07-28T07:18:51;100306.25;;;18.30;91.40
6208;BME280;3137;51.550;7.060;2023-07-28T07:21:17;100309.81;;;18.31;91.24
6208;BME280;3137;51.550;7.060;2023-07-28T07:23:44;100311.69;;;18.37;90.59
6208;BME280;3137;51.550;7.060;2023-07-28T07:26:24;100313.31;;;18.38;90.44
6208;BME280;3137;51.550;7.060;2023-07-28T07:28:50;100309.97;;;18.42;90.55
6208;BME280;3137;51.550;7.060;2023-07-28T07:31:17;100316.03;;;18.44;90.92
6208;BME280;3137;51.550;7.060;2023-07-28T07:33:43;100323.06;;;18.52;91.04
6208;BME280;3137;51.550;7.060;2023-07-28T07:36:13;100324.34;;;18.56;90.70
6208;BME280;3137;51.550;7.060;2023-07-28T07:38:40;100326.59;;;18.65;90.62
6208;BME280;3137;51.550;7.060;2023-07-28T07:41:13;100323.69;;;18.67;90.01
6208;BME280;3137;51.550;7.060;2023-07-28T07:43:46;100333.25;;;18.69;90.16
6208;BME280;3137;51.550;7.060;2023-07-28T07:46:14;100340.75;;;18.67;90.66
6208;BME280;3137;51.550;7.060;2023-07-28T07:48:40;100333.44;;;18.75;90.68
6208;BME280;3137;51.550;7.060;2023-07-28T07:51:08;100335.91;;;18.83;89.36
6208;BME280;3137;51.550;7.060;2023-07-28T07:53:35;100331.09;;;18.85;88.32
6208;BME280;3137;51.550;7.060;2023-07-28T07:56:03;100336.50;;;18.91;88.73
6208;BME280;3137;51.550;7.060;2023-07-28T07:58:30;100331.53;;;18.88;88.78
6208;BME280;3137;51.550;7.060;2023-07-28T08:00:56;100334.84;;;18.90;88.28
6208;BME280;3137;51.550;7.060;2023-07-28T08:03:23;100333.34;;;18.94;88.06
6208;BME280;3137;51.550;7.060;2023-07-28T08:05:50;100327.72;;;18.96;87.73
6208;BME280;3137;51.550;7.060;2023-07-28T08:08:17;100323.94;;;19.03;88.07
6208;BME280;3137;51.550;7.060;2023-07-28T08:10:46;100325.75;;;19.16;87.42
6208;BME280;3137;51.550;7.060;2023-07-28T08:13:14;100328.00;;;19.19;87.20
6208;BME280;3137;51.550;7.060;2023-07-28T08:15:43;100340.06;;;19.23;87.82
6208;BME280;3137;51.550;7.060;2023-07-28T08:18:11;100332.97;;;19.29;87.25
6208;BME280;3137;51.550;7.060;2023-07-28T08:20:37;100337.09;;;19.31;87.17
6208;BME280;3137;51.550;7.060;2023-07-28T08:23:04;100351.72;;;19.30;86.55
6208;BME280;3137;51.550;7.060;2023-07-28T08:25:30;100356.25;;;19.36;86.11
6208;BME280;3137;51.550;7.060;2023-07-28T08:27:57;100354.19;;;19.38;86.56
6208;BME280;3137;51.550;7.060;2023-07-28T08:30:23;100355.28;;;19.31;86.10
6208;BME280;3137;51.550;7.060;2023-07-28T08:32:49;100358.38;;;19.34;86.58
6208;BME280;3137;51.550;7.060;2023-07-28T08:35:16;100365.69;;;19.34;85.56
6208;BME280;3137;51.550;7.060;2023-07-28T08:37:42;100356.97;;;19.18;86.26
6208;BME280;3137;51.550;7.060;2023-07-28T08:40:09;100360.91;;;19.23;86.50
6208;BME280;3137;51.550;7.060;2023-07-28T08:42:38;100367.75;;;19.32;86.33
6208;BME280;3137;51.550;7.060;2023-07-28T08:45:06;100367.50;;;19.40;85.86
6208;BME280;3137;51.550;7.060;2023-07-28T08:47:36;100372.09;;;19.46;85.88
6208;BME280;3137;51.550;7.060;2023-07-28T08:50:04;100365.41;;;19.42;86.67
6208;BME280;3137;51.550;7.060;2023-07-28T08:52:32;100365.25;;;19.43;86.05
6208;BME280;3137;51.550;7.060;2023-07-28T08:55:00;100375.41;;;19.48;85.39
6208;BME280;3137;51.550;7.060;2023-07-28T08:57:27;100374.59;;;19.47;84.74
6208;BME280;3137;51.550;7.060;2023-07-28T08:59:54;100378.13;;;19.48;84.84
6208;BME280;3137;51.550;7.060;2023-07-28T09:02:21;100382.22;;;19.57;85.88
6208;BME280;3137;51.550;7.060;2023-07-28T09:04:48;100387.06;;;19.55;85.78
6208;BME280;3137;51.550;7.060;2023-07-28T09:07:14;100376.81;;;19.57;85.71
6208;BME280;3137;51.550;7.060;2023-07-28T09:09:41;100384.69;;;19.65;85.14
6208;BME280;3137;51.550;7.060;2023-07-28T09:12:08;100382.41;;;19.62;85.41
6208;BME280;3137;51.550;7.060;2023-07-28T09:14:36;100385.09;;;19.69;85.46
6208;BME280;3137;51.550;7.060;2023-07-28T09:17:10;100382.69;;;19.85;85.25
6208;BME280;3137;51.550;7.060;2023-07-28T09:19:54;100384.94;;;19.88;85.21
6208;BME280;3137;51.550;7.060;2023-07-28T09:22:21;100384.50;;;19.91;85.57
6208;BME280;3137;51.550;7.060;2023-07-28T09:24:48;100379.34;;;20.08;85.43
6208;BME280;3137;51.550;7.060;2023-07-28T09:27:23;100380.81;;;20.11;84.57
6208;BME280;3137;51.550;7.060;2023-07-28T09:29:52;100378.97;;;20.04;84.63
6208;BME280;3137;51.550;7.060;2023-07-28T09:32:32;100386.63;;;20.14;84.01
6208;BME280;3137;51.550;7.060;2023-07-28T09:35:10;100378.75;;;20.06;84.61
6208;BME280;3137;51.550;7.060;2023-07-28T09:37:40;100382.44;;;20.12;85.13
6208;BME280;3137;51.550;7.060;2023-07-28T09:40:12;100381.50;;;20.24;84.16
6208;BME280;3137;51.550;7.060;2023-07-28T09:42:43;100385.88;;;20.25;83.23
6208;BME280;3137;51.550;7.060;2023-07-28T09:45:11;100375.75;;;20.39;82.42
6208;BME280;3137;51.550;7.060;2023-07-28T09:47:57;100384.75;;;20.39;82.61
6208;BME280;3137;51.550;7.060;2023-07-28T09:50:27;100381.94;;;20.46;82.89
6208;BME280;3137;51.550;7.060;2023-07-28T09:52:58;100389.25;;;20.45;82.67
6208;BME280;3137;51.550;7.060;2023-07-28T09:55:28;100397.56;;;20.50;82.96
6208;BME280;3137;51.550;7.060;2023-07-28T09:57:56;100390.47;;;20.31;82.87
6208;BME280;3137;51.550;7.060;2023-07-28T10:00:23;100395.69;;;20.26;83.37
6208;BME280;3137;51.550;7.060;2023-07-28T10:02:50;100386.34;;;20.22;84.53
6208;BME280;3137;51.550;7.060;2023-07-28T10:05:17;100394.03;;;20.25;84.71
6208;BME280;3137;51.550;7.060;2023-07-28T10:07:45;100399.69;;;20.24;85.35
6208;BME280;3137;51.550;7.060;2023-07-28T10:10:14;100404.13;;;20.18;85.34
6208;BME280;3137;51.550;7.060;2023-07-28T10:12:51;100405.44;;;20.09;85.48
6208;BME280;3137;51.550;7.060;2023-07-28T10:15:19;100401.22;;;20.13;85.60
6208;BME280;3137;51.550;7.060;2023-07-28T10:17:49;100403.28;;;20.18;86.06
6208;BME280;3137;51.550;7.060;2023-07-28T10:25:33;100412.41;;;20.30;85.22
6208;BME280;3137;51.550;7.060;2023-07-28T10:28:01;100413.84;;;20.32;84.73
6208;BME280;3137;51.550;7.060;2023-07-28T10:30:28;100411.44;;;20.42;84.30
6208;BME280;3137;51.550;7.060;2023-07-28T10:32:56;100409.41;;;20.38;83.96
6208;BME280;3137;51.550;7.060;2023-07-28T10:35:25;100415.00;;;20.43;83.75
6208;BME280;3137;51.550;7.060;2023-07-28T10:37:53;100416.66;;;20.44;83.81
6208;BME280;3137;51.550;7.060;2023-07-28T10:40:32;100417.03;;;20.47;83.19
6208;BME280;3137;51.550;7.060;2023-07-28T10:43:03;100417.41;;;20.51;83.22
6208;BME280;3137;51.550;7.060;2023-07-28T10:45:31;100414.50;;;20.52;83.48
6208;BME280;3137;51.550;7.060;2023-07-28T10:47:59;100413.13;;;20.80;81.95
6208;BME280;3137;51.550;7.060;2023-07-28T10:50:31;100423.94;;;20.86;80.45
6208;BME280;3137;51.550;7.060;2023-07-28T10:52:58;100420.09;;;20.94;80.21
6208;BME280;3137;51.550;7.060;2023-07-28T10:55:26;100417.28;;;21.01;80.46
6208;BME280;3137;51.550;7.060;2023-07-28T10:57:54;100418.22;;;20.94;79.29
6208;BME280;3137;51.550;7.060;2023-07-28T11:00:22;100414.19;;;20.97;79.82
6208;BME280;3137;51.550;7.060;2023-07-28T11:02:51;100421.94;;;21.00;79.63
6208;BME280;3137;51.550;7.060;2023-07-28T11:07:52;100416.69;;;20.98;78.21
6208;BME280;3137;51.550;7.060;2023-07-28T11:10:20;100421.31;;;20.98;79.74
6208;BME280;3137;51.550;7.060;2023-07-28T11:12:48;100422.59;;;20.95;78.76
6208;BME280;3137;51.550;7.060;2023-07-28T11:15:17;100424.84;;;20.98;80.33
6208;BME280;3137;51.550;7.060;2023-07-28T11:17:49;100427.41;;;21.12;80.53
6208;BME280;3137;51.550;7.060;2023-07-28T11:20:21;100424.28;;;21.15;79.60
6208;BME280;3137;51.550;7.060;2023-07-28T11:22:55;100420.50;;;21.16;78.12
6208;BME280;3137;51.550;7.060;2023-07-28T11:25:24;100419.09;;;21.07;78.61
6208;BME280;3137;51.550;7.060;2023-07-28T11:27:51;100420.53;;;21.09;80.31
6208;BME280;3137;51.550;7.060;2023-07-28T11:30:19;100421.00;;;21.06;79.09
6208;BME280;3137;51.550;7.060;2023-07-28T11:32:47;100425.31;;;21.14;80.02
6208;BME280;3137;51.550;7.060;2023-07-28T11:35:15;100426.47;;;21.24;80.32
6208;BME280;3137;51.550;7.060;2023-07-28T11:37:45;100422.53;;;21.38;80.94
6208;BME280;3137;51.550;7.060;2023-07-28T11:40:14;100428.00;;;21.50;76.82
6208;BME280;3137;51.550;7.060;2023-07-28T11:42:44;100432.78;;;21.36;77.04
6208;BME280;3137;51.550;7.060;2023-07-28T11:45:13;100430.78;;;21.43;77.88
6208;BME280;3137;51.550;7.060;2023-07-28T11:47:39;100427.63;;;21.47;77.03
6208;BME280;3137;51.550;7.060;2023-07-28T11:50:06;100426.50;;;21.36;77.96
6208;BME280;3137;51.550;7.060;2023-07-28T11:52:37;100426.69;;;21.53;76.85
6208;BME280;3137;51.550;7.060;2023-07-28T11:55:06;100421.50;;;21.51;76.14
6208;BME280;3137;51.550;7.060;2023-07-28T11:57:33;100422.63;;;21.43;77.21
6208;BME280;3137;51.550;7.060;2023-07-28T11:59:59;100426.19;;;21.44;76.47
6208;BME280;3137;51.550;7.060;2023-07-28T12:02:27;100427.13;;;21.38;77.37
6208;BME280;3137;51.550;7.060;2023-07-28T12:04:54;100430.28;;;21.35;77.84
6208;BME280;3137;51.550;7.060;2023-07-28T12:07:30;100431.47;;;21.39;79.01
6208;BME280;3137;51.550;7.060;2023-07-28T12:09:57;100426.16;;;21.32;78.56
6208;BME280;3137;51.550;7.060;2023-07-28T12:12:30;100419.47;;;21.47;77.55
6208;BME280;3137;51.550;7.060;2023-07-28T12:15:25;100425.03;;;21.52;76.92
6208;BME280;3137;51.550;7.060;2023-07-28T12:18:15;100417.84;;;21.57;77.65
6208;BME280;3137;51.550;7.060;2023-07-28T12:20:49;100414.91;;;21.59;77.40
6208;BME280;3137;51.550;7.060;2023-07-28T12:23:18;100411.50;;;21.63;77.65
6208;BME280;3137;51.550;7.060;2023-07-28T12:25:49;100404.75;;;21.66;77.68
6208;BME280;3137;51.550;7.060;2023-07-28T12:28:16;100404.53;;;21.67;78.70
6208;BME280;3137;51.550;7.060;2023-07-28T12:30:46;100404.88;;;21.71;78.84
6208;BME280;3137;51.550;7.060;2023-07-28T12:33:15;100404.69;;;21.84;78.92
6208;BME280;3137;51.550;7.060;2023-07-28T12:35:45;100410.34;;;21.82;77.43
6208;BME280;3137;51.550;7.060;2023-07-28T12:38:14;100414.88;;;21.88;77.41
6208;BME280;3137;51.550;7.060;2023-07-28T12:40:43;100408.53;;;21.95;77.25
6208;BME280;3137;51.550;7.060;2023-07-28T12:43:13;100409.34;;;21.95;76.05
6208;BME280;3137;51.550;7.060;2023-07-28T12:45:42;100410.09;;;22.02;77.66
6208;BME280;3137;51.550;7.060;2023-07-28T12:48:11;100411.38;;;22.11;75.69
6208;BME280;3137;51.550;7.060;2023-07-28T12:50:46;100414.38;;;22.10;75.83
6208;BME280;3137;51.550;7.060;2023-07-28T12:53:13;100403.94;;;22.07;76.25
6208;BME280;3137;51.550;7.060;2023-07-28T12:55:44;100405.59;;;22.19;75.15
6208;BME280;3137;51.550;7.060;2023-07-28T12:58:13;100409.63;;;22.17;75.04
6208;BME280;3137;51.550;7.060;2023-07-28T13:00:43;100408.91;;;22.10;75.83
6208;BME280;3137;51.550;7.060;2023-07-28T13:03:12;100394.13;;;22.06;76.02
6208;BME280;3137;51.550;7.060;2023-07-28T13:05:39;100396.25;;;22.15;75.52
6208;BME280;3137;51.550;7.060;2023-07-28T13:08:09;100395.09;;;22.35;74.77
6208;BME280;3137;51.550;7.060;2023-07-28T13:10:36;100406.22;;;22.33;73.56
6208;BME280;3137;51.550;7.060;2023-07-28T13:13:05;100399.22;;;22.25;72.60
6208;BME280;3137;51.550;7.060;2023-07-28T13:15:38;100410.59;;;22.34;73.28
6208;BME280;3137;51.550;7.060;2023-07-28T13:18:05;100403.59;;;22.50;70.04
6208;BME280;3137;51.550;7.060;2023-07-28T13:20:31;100417.13;;;22.56;72.08
6208;BME280;3137;51.550;7.060;2023-07-28T13:22:58;100412.84;;;22.60;69.96
6208;BME280;3137;51.550;7.060;2023-07-28T13:25:24;100414.25;;;22.63;71.11